Latest Weather Observations for Middle Point

IDD60801

Issued at 9:05 am CST Friday 25 April 2014 (issued every 30 minutes, with the page automatically refreshed every 10 minutes)

About weather observations | Map of weather stations | Latest weather observations for NT | Other Formats
Station Details ID: 014041 Name: MIDDLE POINT Lat: -12.61 Lon: 131.30 Height: 14.1 m
Data from the previous 72 hours. | See also: Recent months at Middle Point
Date/Time
CST
Temp
°C
App
Temp
°C
Dew
Point
Rel
Hum
%
Delta-T
°C
Wind Press
QNH
hPa
Press
MSL
hPa
Rain
since 9 am
mm
Dir
 
Spd
km/h
Gust
km/h
Spd
kts
Gust
kts
25/09:00am 25.8 29.9 22.3 81 2.4 S 4 6 2 3 1009.4 1009.3 0.2
25/08:30am 25.2 28.9 22.3 84 1.9 S 6 7 3 4 1009.1 1009.0 0.2
25/08:00am 24.4 28.4 22.7 90 1.1 S 6 7 3 4 1008.9 - 0.2
25/07:30am 23.1 27.3 21.7 92 0.9 SSW 2 4 1 2 1008.6 1008.5 0.2
25/07:00am 22.7 26.1 21.0 90 1.1 SSW 4 4 2 2 1008.2 - 0.2
25/06:30am 23.0 26.6 21.3 90 1.1 SSW 4 6 2 3 1007.6 1007.5 0.2
25/06:00am 23.1 26.7 21.2 89 1.2 S 4 6 2 3 1007.2 1007.1 0.2
25/05:30am 23.3 26.7 21.7 91 1.1 SSW 6 7 3 4 1006.9 1006.8 0.2
25/05:00am 23.6 27.6 22.0 91 1.1 SW 4 6 2 3 1006.7 - 0.2
25/04:30am 23.7 27.7 22.1 91 1.1 SW 4 4 2 2 1006.5 1006.4 0.2
25/04:00am 24.0 28.2 22.4 91 1.1 WSW 4 4 2 2 1006.4 - 0.2
25/03:30am 24.0 28.2 22.4 91 1.1 WSW 4 4 2 2 1006.4 1006.3 0.2
25/03:00am 24.4 29.4 23.2 93 0.8 WSW 2 4 1 2 1006.4 1006.3 0.2
25/02:30am 24.2 28.2 22.8 92 0.9 WSW 6 7 3 4 1006.5 1006.4 0.2
25/02:00am 24.5 29.1 23.1 92 0.9 W 4 6 2 3 1006.8 - 0.2
25/01:30am 24.7 29.4 23.3 92 1.0 WNW 4 6 2 3 1007.0 1006.9 0.2
25/01:00am 24.8 29.5 23.4 92 1.0 WNW 4 6 2 3 1007.3 - 0.2
25/12:30am 24.8 29.5 23.4 92 1.0 WNW 4 4 2 2 1007.7 1007.6 0.2
25/12:00am 24.4 28.9 23.0 92 0.9 NW 4 6 2 3 1007.9 1007.8 0.2
 
Date/Time
CST
Temp
°C
App
Temp
°C
Dew
Point
Rel
Hum
%
Delta-T
°C
Wind Press
QNH
hPa
Press
MSL
hPa
Rain
since 9 am
mm
Dir
 
Spd
km/h
Gust
km/h
Spd
kts
Gust
kts
24/11:30pm 24.1 28.0 22.5 91 1.1 NW 6 6 3 3 1008.1 1008.0 0.2
24/11:00pm 24.8 29.3 23.0 90 1.2 NNW 4 6 2 3 1008.4 - 0.2
24/10:30pm 24.6 29.5 23.0 91 1.1 NW 2 4 1 2 1008.5 1008.4 0.2
24/10:00pm 24.5 28.5 22.8 90 1.1 NNW 6 6 3 3 1008.5 - 0.2
24/09:30pm 24.4 28.4 22.7 90 1.1 NW 6 6 3 3 1008.3 1008.2 0.2
24/09:00pm 24.8 29.9 22.7 88 1.4 CALM 0 0 0 0 1008.1 1008.0 0.2
24/08:30pm 25.5 30.0 23.0 86 1.7 ENE 4 4 2 2 1007.7 1007.6 0.2
24/08:00pm 25.5 30.5 23.2 87 1.6 WSW 2 11 1 6 1007.1 - 0.2
24/07:30pm 26.1 31.2 23.4 85 1.8 WSW 2 2 1 1 1006.5 1006.4 0.2
24/07:00pm 27.0 32.4 23.3 80 2.5 CALM 0 0 0 0 1005.9 - 0.2
24/06:30pm 28.8 33.7 23.0 71 4.0 SSE 2 2 1 1 1005.6 1005.5 0.2
24/06:00pm 30.3 34.5 22.5 63 5.3 SSE 4 6 2 3 1005.3 1005.2 0.2
24/05:30pm 31.4 34.8 21.6 56 6.6 SSE 6 6 3 3 1005.1 1005.0 0.2
24/05:00pm 32.5 34.9 19.7 46 8.4 SSE 6 7 3 4 1004.9 - 0.2
24/04:30pm 33.3 35.0 19.4 44 9.2 SE 9 11 5 6 1004.7 1004.6 0.2
24/04:00pm 33.4 35.3 19.8 44 9.0 SE 9 13 5 7 1004.9 - 0.2
24/03:30pm 34.2 35.8 19.1 41 10.0 S 9 15 5 8 1005.0 1004.9 0.2
24/03:00pm 34.1 35.3 19.0 41 9.9 S 11 15 6 8 1005.4 1005.3 0.2
24/02:30pm 33.4 34.9 19.8 44 9.0 S 11 13 6 7 1005.7 1005.6 0.2
24/02:00pm 33.1 34.4 19.2 43 9.1 SSE 11 15 6 8 1006.0 - 0.2
24/01:30pm 32.9 33.6 19.7 45 8.7 SSE 15 22 8 12 1006.4 1006.3 0.2
24/01:00pm 32.9 33.8 20.8 49 8.1 SSE 17 22 9 12 1006.7 - 0.2
24/12:30pm 32.5 33.1 21.0 50 7.7 SSE 19 26 10 14 1007.4 1007.3 0.2
24/12:00pm 32.2 33.9 21.7 54 7.1 S 15 22 8 12 1007.8 1007.7 0.2
24/11:30am 31.7 33.4 22.4 58 6.4 SSE 17 26 9 14 1008.5 1008.4 0.2
24/11:00am 30.8 32.7 22.1 59 5.9 SSE 15 22 8 12 1009.2 - 0.0
24/10:30am 29.9 32.5 22.6 65 5.0 SE 13 17 7 9 1009.8 1009.7 0.0
24/10:00am 28.9 31.6 22.9 70 4.1 SSE 13 17 7 9 1009.7 - 0.0
24/09:30am 28.4 31.8 24.0 77 3.0 SSE 13 19 7 10 1009.6 1009.5 0.0
24/09:00am 27.4 31.6 24.1 82 2.3 S 9 11 5 6 1009.1 1009.0 0.4
24/08:30am 26.2 30.8 24.2 89 1.4 S 7 11 4 6 1008.6 1008.5 0.4
24/08:00am 25.2 30.7 24.0 93 0.8 SSE 2 4 1 2 1008.4 - 0.4
24/07:30am 24.4 29.3 23.0 92 0.9 S 2 4 1 2 1008.0 1007.9 0.4
24/07:00am 24.3 28.3 23.1 93 0.8 S 7 9 4 5 1007.2 - 0.4
24/06:30am 24.2 28.7 23.0 93 0.8 SSE 4 6 2 3 1007.0 1006.9 0.4
24/06:00am 23.8 28.5 22.6 93 0.8 S 2 4 1 2 1006.7 1006.6 0.4
24/05:30am 23.7 28.3 22.5 93 0.8 S 2 2 1 1 1006.5 1006.4 0.4
24/05:00am 23.6 28.1 22.2 92 0.9 S 2 2 1 1 1006.5 - 0.4
24/04:30am 24.1 28.4 22.7 92 0.9 S 4 4 2 2 1006.3 1006.2 0.4
24/04:00am 24.3 29.5 22.9 92 0.9 CALM 0 0 0 0 1006.3 - 0.4
24/03:30am 24.4 29.7 23.0 92 0.9 CALM 0 0 0 0 1006.5 1006.4 0.4
24/03:00am 24.5 29.8 23.1 92 0.9 CALM 0 0 0 0 1006.5 1006.4 0.4
24/02:30am 24.6 29.6 23.2 92 1.0 WNW 2 4 1 2 1006.6 1006.5 0.4
24/02:00am 24.7 30.0 23.1 91 1.1 CALM 0 0 0 0 1006.9 - 0.4
24/01:30am 24.9 30.0 23.3 91 1.1 NNW 2 4 1 2 1007.4 1007.3 0.4
24/01:00am 24.9 30.2 23.1 90 1.2 CALM 0 0 0 0 1007.5 - 0.4
24/12:30am 25.7 31.3 23.6 88 1.4 CALM 0 2 0 1 1007.8 1007.7 0.4
24/12:00am 26.1 29.7 23.8 87 1.6 E 11 17 6 9 1008.3 1008.2 0.4
 
Date/Time
CST
Temp
°C
App
Temp
°C
Dew
Point
Rel
Hum
%
Delta-T
°C
Wind Press
QNH
hPa
Press
MSL
hPa
Rain
since 9 am
mm
Dir
 
Spd
km/h
Gust
km/h
Spd
kts
Gust
kts
23/11:30pm 26.3 30.6 24.3 89 1.4 E 9 13 5 7 1008.6 1008.5 0.4
23/11:00pm 26.7 31.0 24.9 90 1.3 ENE 11 17 6 9 1008.9 - 0.4
23/10:30pm 26.8 33.3 25.0 90 1.3 CALM 0 0 0 0 1008.8 1008.7 0.0
23/10:00pm 26.4 32.1 25.0 92 1.0 NNE 4 6 2 3 1008.7 - 0.0
23/09:30pm 25.9 30.9 23.9 89 1.4 NNW 4 7 2 4 1008.5 1008.4 0.0
23/09:00pm 26.8 32.8 24.8 89 1.4 ENE 2 7 1 4 1008.3 1008.2 0.0
23/08:30pm 26.8 32.6 24.6 88 1.5 NW 2 4 1 2 1007.4 1007.3 0.0
23/08:00pm 27.2 33.1 24.7 86 1.7 WNW 2 4 1 2 1006.8 - 0.0
23/07:30pm 27.5 33.5 24.9 86 1.8 N 2 4 1 2 1006.7 1006.6 0.0
23/07:00pm 27.5 32.4 24.6 84 2.0 N 7 7 4 4 1006.4 - 0.0
23/06:30pm 28.0 32.9 24.6 82 2.4 N 7 9 4 5 1006.1 1006.0 0.0
23/06:00pm 30.2 34.6 24.4 71 4.1 NNE 9 15 5 8 1005.8 1005.7 0.0
23/05:30pm 30.9 33.8 23.8 66 4.9 N 15 19 8 10 1005.2 1005.1 0.0
23/05:00pm 30.6 34.5 24.3 69 4.4 N 11 15 6 8 1005.0 - 0.0
23/04:30pm 32.6 36.1 22.1 54 7.2 ESE 7 11 4 6 1004.8 1004.7 0.0
23/04:00pm 33.0 35.9 21.8 51 7.6 SE 9 13 5 7 1004.7 - 0.0
23/03:30pm 33.8 35.8 21.6 49 8.3 SE 13 19 7 10 1004.8 1004.7 0.0
23/03:00pm 33.6 36.1 21.1 48 8.4 SE 9 15 5 8 1005.2 1005.1 0.0
23/02:30pm 33.3 35.3 21.5 50 8.0 ESE 13 19 7 10 1005.7 1005.6 0.0
23/02:00pm 33.5 34.6 21.3 48 8.2 ESE 17 26 9 14 1006.1 - 0.0
23/01:30pm 33.2 34.2 21.0 48 8.2 SE 17 30 9 16 1006.5 1006.4 0.0
23/01:00pm 33.0 33.4 20.9 49 8.1 SE 20 30 11 16 1006.8 - 0.0
23/12:30pm 33.0 32.3 20.2 47 8.5 SE 24 35 13 19 1007.0 1006.9 0.0
23/12:00pm 32.5 33.2 20.4 49 8.1 S 17 22 9 12 1007.5 1007.4 0.0
23/11:30am 31.9 33.8 21.4 53 7.1 SSE 13 22 7 12 1008.3 1008.2 0.0
23/11:00am 31.4 33.5 22.4 59 6.1 S 15 20 8 11 1008.7 - 0.0
23/10:30am 30.2 32.1 22.1 62 5.5 S 15 20 8 11 1009.1 1009.0 0.0
23/10:00am 29.1 30.5 21.8 64 4.9 S 17 20 9 11 1009.4 - 0.0
23/09:30am 28.5 30.1 21.5 66 4.7 S 15 22 8 12 1009.5 1009.4 0.0
23/09:00am 27.2 29.7 21.7 72 3.7 S 11 15 6 8 1009.7 1009.6 0.0
23/08:30am 26.3 29.2 21.7 76 3.1 S 9 11 5 6 1009.6 1009.5 0.0
23/08:00am 24.8 28.8 22.1 85 1.8 S 4 7 2 4 1009.6 - 0.0
23/07:30am 23.0 26.5 21.8 93 0.8 S 6 6 3 3 1009.2 1009.1 0.0
23/07:00am 22.1 26.3 20.9 93 0.8 CALM 0 0 0 0 1009.2 - 0.0
23/06:30am 22.2 26.3 20.8 92 0.9 CALM 0 0 0 0 1008.9 1008.8 0.0
23/06:00am 22.2 26.3 20.8 92 0.9 CALM 0 0 0 0 1008.8 1008.7 0.0
23/05:30am 22.3 26.4 20.8 91 1.0 CALM 0 0 0 0 1008.5 1008.4 0.0
23/05:00am 22.8 27.2 21.3 91 1.0 CALM 0 0 0 0 1008.3 - 0.0
23/04:30am 22.9 27.2 21.2 90 1.1 CALM 0 0 0 0 1008.2 1008.1 0.0
23/04:00am 23.2 27.6 21.3 89 1.2 CALM 0 0 0 0 1008.0 - 0.0
23/03:30am 23.2 27.5 21.1 88 1.4 CALM 0 2 0 1 1007.8 1007.7 0.0
23/03:00am 23.9 27.1 21.2 85 1.8 S 6 9 3 5 1007.7 1007.6 0.0
23/02:30am 23.6 26.5 21.1 86 1.6 SSW 7 9 4 5 1008.0 1007.9 0.0
23/02:00am 24.7 27.8 21.4 82 2.2 ESE 7 7 4 4 1008.0 - 0.0
23/01:30am 23.9 28.0 22.2 90 1.1 S 4 9 2 5 1008.5 1008.4 0.0
23/01:00am 23.7 27.7 22.1 91 1.1 SW 4 6 2 3 1009.1 - 0.0
23/12:30am 24.1 28.1 22.0 88 1.4 SW 4 6 2 3 1009.4 1009.3 0.0
23/12:00am 24.4 29.4 22.5 89 1.3 CALM 0 0 0 0 1009.6 1009.5 0.0
 
Date/Time
CST
Temp
°C
App
Temp
°C
Dew
Point
Rel
Hum
%
Delta-T
°C
Wind Press
QNH
hPa
Press
MSL
hPa
Rain
since 9 am
mm
Dir
 
Spd
km/h
Gust
km/h
Spd
kts
Gust
kts
22/11:30pm 24.4 29.4 22.5 89 1.3 CALM 0 0 0 0 1010.0 1009.9 0.0
22/11:00pm 24.5 29.4 22.4 88 1.4 CALM 0 0 0 0 1010.1 - 0.0
22/10:30pm 24.3 29.2 22.4 89 1.3 CALM 0 2 0 1 1010.0 1009.9 0.0
22/10:00pm 24.7 29.4 22.6 88 1.4 WNW 2 7 1 4 1009.8 - 0.0
22/09:30pm 24.8 29.7 22.3 86 1.7 CALM 0 0 0 0 1009.3 1009.2 0.0
22/09:00pm 25.9 30.6 22.6 82 2.2 NE 2 6 1 3 1009.1 1009.0 0.0
22/08:30pm 25.9 29.6 22.6 82 2.2 NE 7 9 4 5 1009.1 1009.0 0.0
22/08:00pm 25.9 31.4 23.4 86 1.7 CALM 0 0 0 0 1008.7 - 0.0
22/07:30pm 26.8 32.2 23.3 81 2.4 CALM 0 2 0 1 1008.1 1008.0 0.0
22/07:00pm 28.3 33.6 23.0 73 3.6 CALM 0 0 0 0 1007.8 - 0.0
22/06:30pm 30.7 35.4 22.6 62 5.5 SSE 2 4 1 2 1007.5 1007.4 0.0
22/06:00pm 31.9 35.6 21.4 53 7.1 SSE 4 4 2 2 1007.2 1007.1 0.0
22/05:30pm 32.6 35.1 19.8 46 8.5 ESE 6 9 3 5 1006.9 1006.8 0.0
22/05:00pm 32.7 34.3 19.9 46 8.5 SE 11 15 6 8 1006.6 - 0.0
22/04:30pm 33.2 34.1 19.3 44 9.2 SE 13 17 7 9 1006.3 1006.2 0.0
22/04:00pm 33.2 33.2 18.9 42 9.4 SE 17 24 9 13 1006.1 - 0.0
22/03:30pm 33.7 34.0 19.7 43 9.3 SE 17 26 9 14 1006.3 1006.2 0.0
22/03:00pm 33.1 34.2 19.6 45 8.9 ESE 13 19 7 10 1006.6 1006.5 0.0
22/02:30pm 32.8 33.3 19.3 45 8.9 ESE 15 20 8 11 1007.0 1006.9 0.0
22/02:00pm 32.5 34.7 20.4 49 8.1 ESE 9 17 5 9 1007.6 - 0.0
22/01:30pm 31.9 33.9 20.8 51 7.4 E 11 19 6 10 1008.2 1008.1 0.0
22/01:00pm 32.1 34.0 21.3 53 7.3 ESE 13 20 7 11 1008.6 - 0.0
22/12:30pm 31.6 32.3 20.5 51 7.4 ESE 17 22 9 12 1009.3 1009.2 0.0
22/12:00pm 31.0 32.8 21.2 56 6.6 ESE 13 20 7 11 1009.9 1009.8 0.0
22/11:30am 30.4 32.9 21.8 60 5.8 ESE 11 19 6 10 1010.9 1010.7 0.0
22/11:00am 29.5 31.8 21.4 61 5.4 SE 11 15 6 8 1011.3 - 0.0
22/10:30am 29.2 32.2 21.9 64 4.9 SE 9 15 5 8 1011.6 1011.4 0.0
22/10:00am 28.3 31.1 21.6 67 4.5 SE 9 13 5 7 1011.7 - 0.0
22/09:30am 27.5 29.5 21.5 70 4.0 SE 13 19 7 10 1011.7 1011.5 0.0

Other Formats:

Comma delimited format used in spreadsheet applications
http://www.bom.gov.au/fwo/IDD60801/IDD60801.95121.axf

JavaScript Object Notation format (JSON) in row-major order
http://www.bom.gov.au/fwo/IDD60801/IDD60801.95121.json